CST,Max TemperatureF,Mean TemperatureF,Min TemperatureF,Max Dew PointF,MeanDew PointF,Min DewpointF,Max Humidity, Mean Humidity, Min Humidity, Max Sea Level PressureIn, Mean Sea Level PressureIn, Min Sea Level PressureIn, Max VisibilityMiles, Mean VisibilityMiles, Min VisibilityMiles, Max Wind SpeedMPH, Mean Wind SpeedMPH, Max Gust SpeedMPH,PrecipitationIn, CloudCover, Events, WindDirDegrees
2012-12-1,68,59,50,57,53,42,94,83,68,29.99,29.88,29.78,10,6,1,10,4,,0.00,6,,181
2012-12-2,66,52,39,52,45,39,100,89,45,30.03,29.96,29.85,10,4,0,7,2,,0.01,2,Fog,206
2012-12-3,73,64,52,58,51,34,81,62,46,30.04,29.82,29.72,10,10,10,26,13,36,0.00,4,,224
2012-12-4,63,51,39,33,29,22,73,49,22,30.32,30.23,30.06,10,10,10,6,2,,0.00,0,,330
2012-12-5,60,47,34,32,30,28,85,52,30,30.34,30.21,30.03,10,10,7,12,3,16,0.00,0,,151
2012-12-6,53,48,43,43,38,31,76,65,50,30.01,29.93,29.87,10,10,10,13,7,,0.00,4,,166
2012-12-7,48,46,44,43,41,39,93,84,77,29.95,29.90,29.86,10,7,4,7,4,,0.00,8,Rain,24
2012-12-8,43,40,37,39,36,34,93,84,70,30.01,29.95,29.88,10,5,1,13,4,,0.01,6,Rain,67
2012-12-9,44,34,21,39,29,10,100,77,51,30.10,29.93,29.83,10,6,2,15,6,26,0.01,6,Rain,326
2012-12-10,30,24,19,15,10,8,65,57,43,30.14,30.08,30.05,10,10,10,16,10,23,0.00,4,,272
2012-12-11,46,34,23,19,14,7,55,45,33,30.16,30.09,30.04,10,10,10,9,5,,0.00,0,,220
2012-12-12,51,40,30,17,13,8,56,36,18,30.23,30.16,30.13,10,10,10,18,9,25,0.00,0,,199
2012-12-13,57,47,37,24,19,14,45,35,25,30.15,30.12,30.07,10,10,10,16,10,23,0.00,0,,201
2012-12-14,54,46,39,41,30,24,87,54,40,30.12,29.93,29.72,10,9,3,20,8,31,0.23,5,Rain-Thunderstorm,178
2012-12-15,54,50,44,46,43,38,86,77,69,29.73,29.61,29.50,10,10,4,16,12,24,0.04,7,Rain,225
2012-12-16,51,43,35,37,35,33,93,80,50,29.80,29.75,29.71,9,4,2,7,3,,0.00,7,,349
2012-12-17,50,43,36,34,31,29,82,66,46,29.80,29.75,29.70,10,7,3,12,5,,0.00,4,,254
2012-12-18,57,48,39,34,32,31,73,58,37,29.90,29.73,29.60,10,10,10,16,9,23,0.00,1,,242
2012-12-19,42,40,37,39,35,30,93,81,67,29.91,29.64,29.42,10,6,2,23,8,29,0.37,6,Rain-Thunderstorm,64
2012-12-20,37,30,24,36,23,13,93,78,58,30.26,29.79,29.39,10,4,0,29,18,41,0.07,5,Fog-Snow-Thunderstorm,311
2012-12-21,39,30,21,20,16,12,74,60,32,30.39,30.32,30.27,10,10,10,7,2,,0.00,0,,201
2012-12-22,53,38,23,28,22,15,89,61,31,30.25,30.06,29.94,10,10,8,9,2,,0.00,0,,140
2012-12-23,37,30,24,26,22,20,85,73,57,30.03,29.97,29.93,10,7,4,9,4,,0.00,0,,348
2012-12-24,26,22,19,20,15,11,86,73,60,30.21,30.09,29.98,10,7,2,13,9,16,0.00,3,,344
2012-12-25,23,18,14,13,11,5,78,70,55,30.36,30.27,30.17,10,9,5,17,12,23,0.00,6,,17
2012-12-26,28,19,10,13,9,4,73,65,51,30.30,30.26,30.20,10,10,10,12,6,18,0.00,2,,347
2012-12-27,37,28,19,24,19,13,81,68,52,30.20,30.06,29.95,10,10,9,12,5,17,0.00,4,,95
2012-12-28,32,28,23,24,21,15,76,72,66,30.10,30.01,29.96,10,7,5,13,5,21,0.00,8,Snow,313
2012-12-29,34,26,19,20,15,13,75,64,44,30.33,30.26,30.08,10,8,4,15,8,22,0.00,3,,289
2012-12-30,48,36,23,21,18,16,78,50,32,30.35,30.25,30.14,10,10,10,21,6,31,0.00,0,,203
2012-12-31,37,30,24,32,26,18,96,80,48,30.21,30.12,30.06,10,4,0,14,7,,0.02,7,Fog-Snow,18